sensor_id;sensor_type;location;lat;lon;timestamp;P1;durP1;ratioP1;P2;durP2;ratioP2
34767;SDS011;21755;43.608;1.236;2023-11-19T00:00:42;10.13;;;5.10;;
34767;SDS011;21755;43.608;1.236;2023-11-19T00:03:08;8.55;;;5.30;;
34767;SDS011;21755;43.608;1.236;2023-11-19T00:05:38;10.95;;;5.22;;
34767;SDS011;21755;43.608;1.236;2023-11-19T00:08:04;12.00;;;5.93;;
34767;SDS011;21755;43.608;1.236;2023-11-19T00:10:31;11.88;;;5.88;;
34767;SDS011;21755;43.608;1.236;2023-11-19T00:12:57;12.98;;;6.18;;
34767;SDS011;21755;43.608;1.236;2023-11-19T00:15:23;11.00;;;5.80;;
34767;SDS011;21755;43.608;1.236;2023-11-19T00:17:49;12.27;;;6.05;;
34767;SDS011;21755;43.608;1.236;2023-11-19T00:20:18;13.38;;;5.80;;
34767;SDS011;21755;43.608;1.236;2023-11-19T00:22:44;12.98;;;6.30;;
34767;SDS011;21755;43.608;1.236;2023-11-19T00:25:16;14.10;;;6.50;;
34767;SDS011;21755;43.608;1.236;2023-11-19T00:27:42;11.98;;;6.35;;
34767;SDS011;21755;43.608;1.236;2023-11-19T00:30:11;10.63;;;6.00;;
34767;SDS011;21755;43.608;1.236;2023-11-19T00:32:37;11.82;;;6.82;;
34767;SDS011;21755;43.608;1.236;2023-11-19T00:35:07;13.88;;;6.50;;
34767;SDS011;21755;43.608;1.236;2023-11-19T00:37:35;13.13;;;6.70;;
34767;SDS011;21755;43.608;1.236;2023-11-19T00:40:01;15.52;;;6.65;;
34767;SDS011;21755;43.608;1.236;2023-11-19T00:42:30;12.93;;;5.93;;
34767;SDS011;21755;43.608;1.236;2023-11-19T00:44:56;11.77;;;6.90;;
34767;SDS011;21755;43.608;1.236;2023-11-19T00:47:23;14.25;;;6.88;;
34767;SDS011;21755;43.608;1.236;2023-11-19T00:49:49;12.05;;;6.57;;
34767;SDS011;21755;43.608;1.236;2023-11-19T00:52:18;14.63;;;6.72;;
34767;SDS011;21755;43.608;1.236;2023-11-19T00:54:43;11.73;;;6.72;;
34767;SDS011;21755;43.608;1.236;2023-11-19T00:57:09;13.63;;;6.68;;
34767;SDS011;21755;43.608;1.236;2023-11-19T00:59:35;12.88;;;6.50;;
34767;SDS011;21755;43.608;1.236;2023-11-19T01:02:01;12.05;;;6.63;;
34767;SDS011;21755;43.608;1.236;2023-11-19T01:04:35;11.00;;;6.40;;
34767;SDS011;21755;43.608;1.236;2023-11-19T01:07:02;15.35;;;6.35;;
34767;SDS011;21755;43.608;1.236;2023-11-19T01:09:31;15.55;;;6.97;;
34767;SDS011;21755;43.608;1.236;2023-11-19T01:12:00;12.85;;;6.60;;
34767;SDS011;21755;43.608;1.236;2023-11-19T01:14:27;14.93;;;7.32;;
34767;SDS011;21755;43.608;1.236;2023-11-19T01:16:53;13.88;;;7.07;;
34767;SDS011;21755;43.608;1.236;2023-11-19T01:19:21;20.40;;;8.35;;
34767;SDS011;21755;43.608;1.236;2023-11-19T01:21:48;17.52;;;8.68;;
34767;SDS011;21755;43.608;1.236;2023-11-19T01:24:14;15.65;;;7.85;;
34767;SDS011;21755;43.608;1.236;2023-11-19T01:26:41;12.18;;;7.25;;
34767;SDS011;21755;43.608;1.236;2023-11-19T01:29:13;13.32;;;6.85;;
34767;SDS011;21755;43.608;1.236;2023-11-19T01:31:40;11.63;;;6.70;;
34767;SDS011;21755;43.608;1.236;2023-11-19T01:34:06;11.80;;;6.35;;
34767;SDS011;21755;43.608;1.236;2023-11-19T01:36:32;15.52;;;6.75;;
34767;SDS011;21755;43.608;1.236;2023-11-19T01:38:58;16.05;;;6.55;;
34767;SDS011;21755;43.608;1.236;2023-11-19T01:41:24;13.80;;;7.07;;
34767;SDS011;21755;43.608;1.236;2023-11-19T01:43:50;14.05;;;7.30;;
34767;SDS011;21755;43.608;1.236;2023-11-19T01:46:16;12.82;;;6.45;;
34767;SDS011;21755;43.608;1.236;2023-11-19T01:48:42;10.18;;;6.40;;
34767;SDS011;21755;43.608;1.236;2023-11-19T01:51:10;13.20;;;6.55;;
34767;SDS011;21755;43.608;1.236;2023-11-19T01:53:41;14.82;;;6.28;;
34767;SDS011;21755;43.608;1.236;2023-11-19T01:56:08;17.27;;;6.82;;
34767;SDS011;21755;43.608;1.236;2023-11-19T01:58:37;17.75;;;7.25;;
34767;SDS011;21755;43.608;1.236;2023-11-19T02:01:04;15.05;;;7.07;;
34767;SDS011;21755;43.608;1.236;2023-11-19T02:03:32;11.02;;;6.63;;
34767;SDS011;21755;43.608;1.236;2023-11-19T02:05:58;13.48;;;7.35;;
34767;SDS011;21755;43.608;1.236;2023-11-19T02:08:25;13.18;;;7.07;;
34767;SDS011;21755;43.608;1.236;2023-11-19T02:10:51;15.55;;;6.50;;
34767;SDS011;21755;43.608;1.236;2023-11-19T02:13:20;13.77;;;6.80;;
34767;SDS011;21755;43.608;1.236;2023-11-19T02:15:46;19.33;;;5.95;;
34767;SDS011;21755;43.608;1.236;2023-11-19T02:18:22;14.77;;;6.28;;
34767;SDS011;21755;43.608;1.236;2023-11-19T02:20:52;12.57;;;6.43;;
34767;SDS011;21755;43.608;1.236;2023-11-19T02:23:20;11.20;;;5.90;;
34767;SDS011;21755;43.608;1.236;2023-11-19T02:25:47;11.20;;;6.00;;
34767;SDS011;21755;43.608;1.236;2023-11-19T02:31:07;11.77;;;6.30;;
34767;SDS011;21755;43.608;1.236;2023-11-19T02:33:35;11.43;;;6.38;;
34767;SDS011;21755;43.608;1.236;2023-11-19T02:36:07;13.65;;;6.18;;
34767;SDS011;21755;43.608;1.236;2023-11-19T02:38:34;11.30;;;6.72;;
34767;SDS011;21755;43.608;1.236;2023-11-19T02:41:04;12.45;;;6.00;;
34767;SDS011;21755;43.608;1.236;2023-11-19T02:43:31;10.35;;;5.72;;
34767;SDS011;21755;43.608;1.236;2023-11-19T02:46:01;8.13;;;4.88;;
34767;SDS011;21755;43.608;1.236;2023-11-19T02:48:29;17.35;;;6.20;;
34767;SDS011;21755;43.608;1.236;2023-11-19T02:50:55;12.30;;;5.40;;
34767;SDS011;21755;43.608;1.236;2023-11-19T02:53:23;15.18;;;5.90;;
34767;SDS011;21755;43.608;1.236;2023-11-19T02:55:52;10.98;;;6.22;;
34767;SDS011;21755;43.608;1.236;2023-11-19T02:58:18;10.90;;;5.72;;
34767;SDS011;21755;43.608;1.236;2023-11-19T03:00:53;11.75;;;6.78;;
34767;SDS011;21755;43.608;1.236;2023-11-19T03:03:23;14.20;;;6.32;;
34767;SDS011;21755;43.608;1.236;2023-11-19T03:05:54;13.25;;;5.97;;
34767;SDS011;21755;43.608;1.236;2023-11-19T03:08:20;13.77;;;6.20;;
34767;SDS011;21755;43.608;1.236;2023-11-19T03:10:47;9.68;;;5.38;;
34767;SDS011;21755;43.608;1.236;2023-11-19T03:13:13;14.43;;;5.65;;
34767;SDS011;21755;43.608;1.236;2023-11-19T03:15:40;11.20;;;5.45;;
34767;SDS011;21755;43.608;1.236;2023-11-19T03:18:07;9.07;;;5.28;;
34767;SDS011;21755;43.608;1.236;2023-11-19T03:20:33;11.07;;;6.00;;
34767;SDS011;21755;43.608;1.236;2023-11-19T03:22:59;8.05;;;4.88;;
34767;SDS011;21755;43.608;1.236;2023-11-19T03:25:26;14.20;;;5.43;;
34767;SDS011;21755;43.608;1.236;2023-11-19T03:27:58;8.10;;;5.13;;
34767;SDS011;21755;43.608;1.236;2023-11-19T03:30:25;8.57;;;4.60;;
34767;SDS011;21755;43.608;1.236;2023-11-19T03:32:51;9.38;;;5.25;;
34767;SDS011;21755;43.608;1.236;2023-11-19T03:35:17;11.55;;;5.28;;
34767;SDS011;21755;43.608;1.236;2023-11-19T03:37:43;12.50;;;5.95;;
34767;SDS011;21755;43.608;1.236;2023-11-19T03:40:09;11.63;;;5.00;;
34767;SDS011;21755;43.608;1.236;2023-11-19T03:42:36;10.65;;;4.90;;
34767;SDS011;21755;43.608;1.236;2023-11-19T03:45:02;12.90;;;4.95;;
34767;SDS011;21755;43.608;1.236;2023-11-19T03:47:32;10.32;;;5.47;;
34767;SDS011;21755;43.608;1.236;2023-11-19T03:49:58;16.95;;;5.82;;
34767;SDS011;21755;43.608;1.236;2023-11-19T03:52:23;9.75;;;5.03;;
34767;SDS011;21755;43.608;1.236;2023-11-19T03:54:49;12.25;;;5.25;;
34767;SDS011;21755;43.608;1.236;2023-11-19T03:57:15;10.07;;;5.18;;
34767;SDS011;21755;43.608;1.236;2023-11-19T03:59:41;10.68;;;5.93;;
34767;SDS011;21755;43.608;1.236;2023-11-19T04:02:07;12.63;;;5.30;;
34767;SDS011;21755;43.608;1.236;2023-11-19T04:04:33;10.02;;;5.72;;
34767;SDS011;21755;43.608;1.236;2023-11-19T04:07:00;12.82;;;5.40;;
34767;SDS011;21755;43.608;1.236;2023-11-19T04:09:27;12.20;;;5.97;;
34767;SDS011;21755;43.608;1.236;2023-11-19T04:11:53;9.05;;;5.20;;
34767;SDS011;21755;43.608;1.236;2023-11-19T04:14:19;15.18;;;6.28;;
34767;SDS011;21755;43.608;1.236;2023-11-19T04:16:45;15.98;;;6.13;;
34767;SDS011;21755;43.608;1.236;2023-11-19T04:19:11;12.93;;;7.07;;
34767;SDS011;21755;43.608;1.236;2023-11-19T04:21:40;11.73;;;6.90;;
34767;SDS011;21755;43.608;1.236;2023-11-19T04:24:07;12.48;;;5.97;;
34767;SDS011;21755;43.608;1.236;2023-11-19T04:26:39;14.63;;;6.95;;
34767;SDS011;21755;43.608;1.236;2023-11-19T04:29:07;14.65;;;7.50;;
34767;SDS011;21755;43.608;1.236;2023-11-19T04:31:40;11.20;;;6.70;;
34767;SDS011;21755;43.608;1.236;2023-11-19T04:34:07;14.73;;;6.20;;
34767;SDS011;21755;43.608;1.236;2023-11-19T04:36:33;13.80;;;6.47;;
34767;SDS011;21755;43.608;1.236;2023-11-19T04:39:00;16.73;;;6.38;;
34767;SDS011;21755;43.608;1.236;2023-11-19T04:41:26;15.68;;;6.95;;
34767;SDS011;21755;43.608;1.236;2023-11-19T04:43:53;11.95;;;6.07;;
34767;SDS011;21755;43.608;1.236;2023-11-19T04:46:19;13.30;;;6.18;;
34767;SDS011;21755;43.608;1.236;2023-11-19T04:48:45;10.93;;;5.57;;
34767;SDS011;21755;43.608;1.236;2023-11-19T04:51:11;11.48;;;5.50;;
34767;SDS011;21755;43.608;1.236;2023-11-19T04:53:37;9.50;;;5.07;;
34767;SDS011;21755;43.608;1.236;2023-11-19T04:56:09;11.18;;;5.35;;
34767;SDS011;21755;43.608;1.236;2023-11-19T05:01:02;8.95;;;5.05;;
34767;SDS011;21755;43.608;1.236;2023-11-19T05:03:30;11.27;;;5.35;;
34767;SDS011;21755;43.608;1.236;2023-11-19T05:05:56;8.57;;;4.63;;
34767;SDS011;21755;43.608;1.236;2023-11-19T05:08:23;9.05;;;5.03;;
34767;SDS011;21755;43.608;1.236;2023-11-19T05:10:49;10.43;;;4.80;;
34767;SDS011;21755;43.608;1.236;2023-11-19T05:13:15;10.63;;;4.70;;
34767;SDS011;21755;43.608;1.236;2023-11-19T05:15:42;9.65;;;5.03;;
34767;SDS011;21755;43.608;1.236;2023-11-19T05:18:07;8.20;;;4.40;;
34767;SDS011;21755;43.608;1.236;2023-11-19T05:20:34;12.00;;;4.82;;
34767;SDS011;21755;43.608;1.236;2023-11-19T05:22:59;8.50;;;4.70;;
34767;SDS011;21755;43.608;1.236;2023-11-19T05:25:26;9.65;;;4.65;;
34767;SDS011;21755;43.608;1.236;2023-11-19T05:27:52;9.23;;;4.35;;
34767;SDS011;21755;43.608;1.236;2023-11-19T05:30:18;13.65;;;4.90;;
34767;SDS011;21755;43.608;1.236;2023-11-19T05:32:44;9.23;;;4.40;;
34767;SDS011;21755;43.608;1.236;2023-11-19T05:35:11;8.82;;;4.47;;
34767;SDS011;21755;43.608;1.236;2023-11-19T05:37:37;8.23;;;4.35;;
34767;SDS011;21755;43.608;1.236;2023-11-19T05:40:03;7.80;;;4.25;;
34767;SDS011;21755;43.608;1.236;2023-11-19T05:42:32;13.05;;;4.75;;
34767;SDS011;21755;43.608;1.236;2023-11-19T05:44:58;10.82;;;5.35;;
34767;SDS011;21755;43.608;1.236;2023-11-19T05:47:24;8.35;;;4.32;;
34767;SDS011;21755;43.608;1.236;2023-11-19T05:49:49;7.88;;;4.20;;
34767;SDS011;21755;43.608;1.236;2023-11-19T05:52:15;6.75;;;4.65;;
34767;SDS011;21755;43.608;1.236;2023-11-19T05:54:41;6.47;;;4.00;;
34767;SDS011;21755;43.608;1.236;2023-11-19T05:57:07;7.78;;;4.50;;
34767;SDS011;21755;43.608;1.236;2023-11-19T05:59:34;8.55;;;4.60;;
34767;SDS011;21755;43.608;1.236;2023-11-19T06:02:01;6.88;;;3.92;;
34767;SDS011;21755;43.608;1.236;2023-11-19T06:04:28;7.63;;;3.90;;
34767;SDS011;21755;43.608;1.236;2023-11-19T06:06:54;8.18;;;4.13;;
34767;SDS011;21755;43.608;1.236;2023-11-19T06:09:20;9.40;;;4.05;;
34767;SDS011;21755;43.608;1.236;2023-11-19T06:11:48;12.18;;;4.35;;
34767;SDS011;21755;43.608;1.236;2023-11-19T06:14:18;9.63;;;4.50;;
34767;SDS011;21755;43.608;1.236;2023-11-19T06:16:44;8.75;;;4.50;;
34767;SDS011;21755;43.608;1.236;2023-11-19T06:19:10;6.53;;;3.97;;
34767;SDS011;21755;43.608;1.236;2023-11-19T06:21:37;9.18;;;5.07;;
34767;SDS011;21755;43.608;1.236;2023-11-19T06:24:03;9.45;;;4.63;;
34767;SDS011;21755;43.608;1.236;2023-11-19T06:26:29;9.25;;;4.13;;
34767;SDS011;21755;43.608;1.236;2023-11-19T06:28:54;10.70;;;4.68;;
34767;SDS011;21755;43.608;1.236;2023-11-19T06:31:20;7.65;;;4.15;;
34767;SDS011;21755;43.608;1.236;2023-11-19T06:33:46;7.85;;;4.97;;
34767;SDS011;21755;43.608;1.236;2023-11-19T06:36:15;11.88;;;5.47;;
34767;SDS011;21755;43.608;1.236;2023-11-19T06:38:44;10.68;;;5.97;;
34767;SDS011;21755;43.608;1.236;2023-11-19T06:41:09;12.02;;;5.57;;
34767;SDS011;21755;43.608;1.236;2023-11-19T06:43:36;12.52;;;5.63;;
34767;SDS011;21755;43.608;1.236;2023-11-19T06:46:02;10.85;;;6.50;;
34767;SDS011;21755;43.608;1.236;2023-11-19T06:48:31;16.40;;;7.45;;
34767;SDS011;21755;43.608;1.236;2023-11-19T06:50:57;12.73;;;6.88;;
34767;SDS011;21755;43.608;1.236;2023-11-19T06:53:24;13.80;;;7.45;;
34767;SDS011;21755;43.608;1.236;2023-11-19T06:55:50;13.00;;;7.78;;
34767;SDS011;21755;43.608;1.236;2023-11-19T06:58:16;14.00;;;7.35;;
34767;SDS011;21755;43.608;1.236;2023-11-19T07:00:43;14.77;;;6.93;;
34767;SDS011;21755;43.608;1.236;2023-11-19T07:03:09;14.73;;;7.32;;
34767;SDS011;21755;43.608;1.236;2023-11-19T07:05:38;11.50;;;6.55;;
34767;SDS011;21755;43.608;1.236;2023-11-19T07:08:05;9.90;;;5.70;;
34767;SDS011;21755;43.608;1.236;2023-11-19T07:10:32;14.00;;;7.03;;
34767;SDS011;21755;43.608;1.236;2023-11-19T07:12:58;10.30;;;6.05;;
34767;SDS011;21755;43.608;1.236;2023-11-19T07:15:25;16.15;;;6.15;;
34767;SDS011;21755;43.608;1.236;2023-11-19T07:17:51;10.07;;;5.65;;
34767;SDS011;21755;43.608;1.236;2023-11-19T07:20:19;11.48;;;6.18;;
34767;SDS011;21755;43.608;1.236;2023-11-19T07:22:45;11.35;;;5.95;;
34767;SDS011;21755;43.608;1.236;2023-11-19T07:25:14;11.48;;;6.40;;
34767;SDS011;21755;43.608;1.236;2023-11-19T07:27:40;12.20;;;6.50;;
34767;SDS011;21755;43.608;1.236;2023-11-19T07:30:06;9.18;;;5.90;;
34767;SDS011;21755;43.608;1.236;2023-11-19T07:32:32;10.95;;;6.32;;
34767;SDS011;21755;43.608;1.236;2023-11-19T07:34:58;10.70;;;6.28;;
34767;SDS011;21755;43.608;1.236;2023-11-19T07:37:24;17.38;;;6.85;;
34767;SDS011;21755;43.608;1.236;2023-11-19T07:39:50;13.65;;;6.45;;
34767;SDS011;21755;43.608;1.236;2023-11-19T07:42:16;16.05;;;6.05;;
34767;SDS011;21755;43.608;1.236;2023-11-19T07:44:45;13.25;;;6.82;;
34767;SDS011;21755;43.608;1.236;2023-11-19T07:47:11;13.10;;;6.63;;
34767;SDS011;21755;43.608;1.236;2023-11-19T07:49:37;14.32;;;6.57;;
34767;SDS011;21755;43.608;1.236;2023-11-19T07:52:04;14.10;;;6.95;;
34767;SDS011;21755;43.608;1.236;2023-11-19T07:54:30;17.58;;;9.50;;
34767;SDS011;21755;43.608;1.236;2023-11-19T07:56:56;17.90;;;9.93;;
34767;SDS011;21755;43.608;1.236;2023-11-19T07:59:22;18.17;;;9.90;;
34767;SDS011;21755;43.608;1.236;2023-11-19T08:01:47;17.23;;;9.05;;
34767;SDS011;21755;43.608;1.236;2023-11-19T08:04:13;17.92;;;8.63;;
34767;SDS011;21755;43.608;1.236;2023-11-19T08:06:39;16.25;;;9.95;;
34767;SDS011;21755;43.608;1.236;2023-11-19T08:09:05;16.63;;;9.27;;
34767;SDS011;21755;43.608;1.236;2023-11-19T08:11:32;15.73;;;9.27;;
34767;SDS011;21755;43.608;1.236;2023-11-19T08:13:58;17.88;;;9.27;;
34767;SDS011;21755;43.608;1.236;2023-11-19T08:16:24;15.02;;;9.15;;
34767;SDS011;21755;43.608;1.236;2023-11-19T08:18:50;17.70;;;9.10;;
34767;SDS011;21755;43.608;1.236;2023-11-19T08:21:16;14.00;;;8.43;;
34767;SDS011;21755;43.608;1.236;2023-11-19T08:23:42;19.38;;;9.23;;
34767;SDS011;21755;43.608;1.236;2023-11-19T08:26:08;20.40;;;9.80;;
34767;SDS011;21755;43.608;1.236;2023-11-19T08:28:34;17.70;;;10.43;;
34767;SDS011;21755;43.608;1.236;2023-11-19T08:31:00;23.70;;;9.27;;
34767;SDS011;21755;43.608;1.236;2023-11-19T08:33:29;16.48;;;10.55;;
34767;SDS011;21755;43.608;1.236;2023-11-19T08:35:55;18.73;;;11.35;;
34767;SDS011;21755;43.608;1.236;2023-11-19T08:38:20;18.80;;;11.18;;
34767;SDS011;21755;43.608;1.236;2023-11-19T08:40:46;18.98;;;10.73;;
34767;SDS011;21755;43.608;1.236;2023-11-19T08:43:12;22.48;;;12.88;;
34767;SDS011;21755;43.608;1.236;2023-11-19T08:45:38;24.13;;;12.70;;
34767;SDS011;21755;43.608;1.236;2023-11-19T08:48:04;21.50;;;11.98;;
34767;SDS011;21755;43.608;1.236;2023-11-19T08:50:30;22.55;;;12.63;;
34767;SDS011;21755;43.608;1.236;2023-11-19T08:52:56;15.80;;;9.55;;
34767;SDS011;21755;43.608;1.236;2023-11-19T08:55:22;19.40;;;10.30;;
34767;SDS011;21755;43.608;1.236;2023-11-19T08:57:48;25.77;;;12.10;;
34767;SDS011;21755;43.608;1.236;2023-11-19T09:00:13;25.40;;;11.38;;
34767;SDS011;21755;43.608;1.236;2023-11-19T09:02:39;18.88;;;10.38;;
34767;SDS011;21755;43.608;1.236;2023-11-19T09:05:05;16.60;;;10.35;;
34767;SDS011;21755;43.608;1.236;2023-11-19T09:07:34;25.85;;;10.60;;
34767;SDS011;21755;43.608;1.236;2023-11-19T09:10:00;19.42;;;10.45;;
34767;SDS011;21755;43.608;1.236;2023-11-19T09:12:26;20.33;;;10.80;;
34767;SDS011;21755;43.608;1.236;2023-11-19T09:14:52;14.65;;;9.85;;
34767;SDS011;21755;43.608;1.236;2023-11-19T09:17:19;21.38;;;10.45;;
34767;SDS011;21755;43.608;1.236;2023-11-19T09:19:45;18.95;;;10.45;;
34767;SDS011;21755;43.608;1.236;2023-11-19T09:22:10;20.88;;;11.13;;
34767;SDS011;21755;43.608;1.236;2023-11-19T09:24:36;18.88;;;10.02;;
34767;SDS011;21755;43.608;1.236;2023-11-19T09:27:03;16.65;;;9.25;;
34767;SDS011;21755;43.608;1.236;2023-11-19T09:29:31;15.32;;;8.48;;
34767;SDS011;21755;43.608;1.236;2023-11-19T09:31:57;16.45;;;8.55;;
34767;SDS011;21755;43.608;1.236;2023-11-19T09:34:23;13.85;;;7.53;;
34767;SDS011;21755;43.608;1.236;2023-11-19T09:36:49;18.02;;;8.23;;
34767;SDS011;21755;43.608;1.236;2023-11-19T09:39:15;18.33;;;8.93;;
34767;SDS011;21755;43.608;1.236;2023-11-19T09:41:43;17.50;;;8.85;;
34767;SDS011;21755;43.608;1.236;2023-11-19T09:44:10;14.75;;;8.18;;
34767;SDS011;21755;43.608;1.236;2023-11-19T09:46:40;14.85;;;8.35;;
34767;SDS011;21755;43.608;1.236;2023-11-19T09:49:08;14.13;;;8.70;;
34767;SDS011;21755;43.608;1.236;2023-11-19T09:51:38;18.13;;;8.73;;
34767;SDS011;21755;43.608;1.236;2023-11-19T09:54:04;14.48;;;7.63;;
34767;SDS011;21755;43.608;1.236;2023-11-19T09:56:30;17.10;;;8.10;;
34767;SDS011;21755;43.608;1.236;2023-11-19T09:58:57;12.90;;;7.32;;
34767;SDS011;21755;43.608;1.236;2023-11-19T10:01:24;13.82;;;8.15;;
34767;SDS011;21755;43.608;1.236;2023-11-19T10:03:50;17.33;;;8.32;;
34767;SDS011;21755;43.608;1.236;2023-11-19T10:06:20;10.65;;;6.78;;
34767;SDS011;21755;43.608;1.236;2023-11-19T10:08:46;14.38;;;6.85;;
34767;SDS011;21755;43.608;1.236;2023-11-19T10:11:12;11.57;;;6.35;;
34767;SDS011;21755;43.608;1.236;2023-11-19T10:13:38;14.82;;;6.20;;
34767;SDS011;21755;43.608;1.236;2023-11-19T10:16:08;13.25;;;6.30;;
34767;SDS011;21755;43.608;1.236;2023-11-19T10:18:37;12.45;;;6.68;;
34767;SDS011;21755;43.608;1.236;2023-11-19T10:21:06;10.25;;;6.30;;
34767;SDS011;21755;43.608;1.236;2023-11-19T10:26:18;14.68;;;6.97;;
34767;SDS011;21755;43.608;1.236;2023-11-19T10:28:48;13.55;;;6.72;;
34767;SDS011;21755;43.608;1.236;2023-11-19T10:31:17;15.48;;;6.50;;
34767;SDS011;21755;43.608;1.236;2023-11-19T10:33:44;12.57;;;6.35;;
34767;SDS011;21755;43.608;1.236;2023-11-19T10:36:11;15.32;;;6.40;;
34767;SDS011;21755;43.608;1.236;2023-11-19T10:38:37;10.45;;;5.57;;
34767;SDS011;21755;43.608;1.236;2023-11-19T10:41:04;11.90;;;5.50;;
34767;SDS011;21755;43.608;1.236;2023-11-19T10:43:30;10.05;;;6.10;;
34767;SDS011;21755;43.608;1.236;2023-11-19T10:46:14;9.32;;;5.38;;
34767;SDS011;21755;43.608;1.236;2023-11-19T10:48:46;12.02;;;5.50;;
34767;SDS011;21755;43.608;1.236;2023-11-19T10:51:11;12.82;;;5.90;;
34767;SDS011;21755;43.608;1.236;2023-11-19T10:53:45;8.77;;;5.65;;
34767;SDS011;21755;43.608;1.236;2023-11-19T10:56:11;10.45;;;5.07;;
34767;SDS011;21755;43.608;1.236;2023-11-19T10:58:43;7.88;;;4.68;;
34767;SDS011;21755;43.608;1.236;2023-11-19T11:01:13;9.18;;;4.57;;
34767;SDS011;21755;43.608;1.236;2023-11-19T11:03:46;8.20;;;4.25;;
34767;SDS011;21755;43.608;1.236;2023-11-19T11:06:12;8.45;;;4.55;;
34767;SDS011;21755;43.608;1.236;2023-11-19T11:08:39;11.82;;;4.57;;
34767;SDS011;21755;43.608;1.236;2023-11-19T11:11:05;8.27;;;3.58;;
34767;SDS011;21755;43.608;1.236;2023-11-19T11:13:33;9.30;;;4.15;;
34767;SDS011;21755;43.608;1.236;2023-11-19T11:16:00;11.90;;;4.40;;
34767;SDS011;21755;43.608;1.236;2023-11-19T11:18:26;11.40;;;4.97;;
34767;SDS011;21755;43.608;1.236;2023-11-19T11:20:57;9.20;;;4.45;;
34767;SDS011;21755;43.608;1.236;2023-11-19T11:23:34;7.50;;;3.90;;
34767;SDS011;21755;43.608;1.236;2023-11-19T11:26:18;8.13;;;3.88;;
34767;SDS011;21755;43.608;1.236;2023-11-19T11:32:00;9.77;;;3.90;;
34767;SDS011;21755;43.608;1.236;2023-11-19T11:34:53;5.85;;;2.97;;
34767;SDS011;21755;43.608;1.236;2023-11-19T11:37:22;12.57;;;3.38;;
34767;SDS011;21755;43.608;1.236;2023-11-19T11:40:03;11.90;;;3.45;;
34767;SDS011;21755;43.608;1.236;2023-11-19T11:42:38;7.20;;;3.45;;
34767;SDS011;21755;43.608;1.236;2023-11-19T11:45:05;7.50;;;3.28;;
34767;SDS011;21755;43.608;1.236;2023-11-19T11:50:10;8.65;;;3.30;;
34767;SDS011;21755;43.608;1.236;2023-11-19T11:55:26;6.68;;;3.95;;
34767;SDS011;21755;43.608;1.236;2023-11-19T11:57:53;6.88;;;3.67;;
34767;SDS011;21755;43.608;1.236;2023-11-19T12:02:54;7.28;;;4.05;;
34767;SDS011;21755;43.608;1.236;2023-11-19T12:05:21;6.47;;;3.42;;
34767;SDS011;21755;43.608;1.236;2023-11-19T12:08:06;7.03;;;3.50;;
34767;SDS011;21755;43.608;1.236;2023-11-19T12:10:45;6.45;;;3.72;;
34767;SDS011;21755;43.608;1.236;2023-11-19T12:13:13;5.28;;;3.67;;
34767;SDS011;21755;43.608;1.236;2023-11-19T12:16:06;10.40;;;3.47;;
34767;SDS011;21755;43.608;1.236;2023-11-19T12:18:30;7.78;;;3.75;;
34767;SDS011;21755;43.608;1.236;2023-11-19T12:20:57;5.57;;;3.30;;
34767;SDS011;21755;43.608;1.236;2023-11-19T12:23:28;10.05;;;3.53;;
34767;SDS011;21755;43.608;1.236;2023-11-19T12:25:55;8.38;;;3.53;;
34767;SDS011;21755;43.608;1.236;2023-11-19T12:28:21;8.93;;;3.10;;
34767;SDS011;21755;43.608;1.236;2023-11-19T12:30:49;6.28;;;2.95;;
34767;SDS011;21755;43.608;1.236;2023-11-19T12:33:16;7.25;;;3.42;;
34767;SDS011;21755;43.608;1.236;2023-11-19T12:35:43;6.32;;;3.13;;
34767;SDS011;21755;43.608;1.236;2023-11-19T12:38:20;7.07;;;3.55;;
34767;SDS011;21755;43.608;1.236;2023-11-19T12:40:48;8.30;;;3.25;;
34767;SDS011;21755;43.608;1.236;2023-11-19T12:43:31;8.35;;;3.08;;
34767;SDS011;21755;43.608;1.236;2023-11-19T12:45:59;3.97;;;2.80;;
34767;SDS011;21755;43.608;1.236;2023-11-19T12:48:25;8.88;;;3.15;;
34767;SDS011;21755;43.608;1.236;2023-11-19T12:50:55;7.55;;;3.42;;
34767;SDS011;21755;43.608;1.236;2023-11-19T12:53:23;8.85;;;3.55;;
34767;SDS011;21755;43.608;1.236;2023-11-19T12:55:50;5.13;;;2.70;;
34767;SDS011;21755;43.608;1.236;2023-11-19T12:58:35;5.38;;;3.00;;
34767;SDS011;21755;43.608;1.236;2023-11-19T13:03:35;6.72;;;3.00;;
34767;SDS011;21755;43.608;1.236;2023-11-19T13:08:39;5.20;;;2.88;;
34767;SDS011;21755;43.608;1.236;2023-11-19T13:11:10;6.05;;;2.80;;
34767;SDS011;21755;43.608;1.236;2023-11-19T13:16:30;5.90;;;2.78;;
34767;SDS011;21755;43.608;1.236;2023-11-19T13:18:56;5.88;;;3.10;;
34767;SDS011;21755;43.608;1.236;2023-11-19T13:21:23;7.88;;;2.70;;
34767;SDS011;21755;43.608;1.236;2023-11-19T13:23:50;5.40;;;3.00;;
34767;SDS011;21755;43.608;1.236;2023-11-19T13:26:15;6.07;;;2.72;;
34767;SDS011;21755;43.608;1.236;2023-11-19T13:28:41;11.43;;;3.35;;
34767;SDS011;21755;43.608;1.236;2023-11-19T13:31:07;6.80;;;3.42;;
34767;SDS011;21755;43.608;1.236;2023-11-19T13:33:33;8.45;;;3.15;;
34767;SDS011;21755;43.608;1.236;2023-11-19T13:35:59;6.88;;;3.42;;
34767;SDS011;21755;43.608;1.236;2023-11-19T13:38:30;6.03;;;2.88;;
34767;SDS011;21755;43.608;1.236;2023-11-19T13:40:57;10.07;;;3.20;;
34767;SDS011;21755;43.608;1.236;2023-11-19T13:43:24;4.47;;;2.35;;
34767;SDS011;21755;43.608;1.236;2023-11-19T13:45:51;8.70;;;3.10;;
34767;SDS011;21755;43.608;1.236;2023-11-19T13:48:18;4.40;;;2.60;;
34767;SDS011;21755;43.608;1.236;2023-11-19T13:50:44;6.22;;;3.33;;
34767;SDS011;21755;43.608;1.236;2023-11-19T13:53:10;4.13;;;2.90;;
34767;SDS011;21755;43.608;1.236;2023-11-19T13:55:36;5.22;;;2.80;;
34767;SDS011;21755;43.608;1.236;2023-11-19T13:58:02;7.00;;;2.90;;
34767;SDS011;21755;43.608;1.236;2023-11-19T14:00:27;8.52;;;3.70;;
34767;SDS011;21755;43.608;1.236;2023-11-19T14:02:53;7.55;;;3.80;;
34767;SDS011;21755;43.608;1.236;2023-11-19T14:05:19;7.68;;;3.28;;
34767;SDS011;21755;43.608;1.236;2023-11-19T14:07:45;4.55;;;3.20;;
34767;SDS011;21755;43.608;1.236;2023-11-19T14:10:13;5.45;;;2.88;;
34767;SDS011;21755;43.608;1.236;2023-11-19T14:12:40;10.38;;;3.13;;
34767;SDS011;21755;43.608;1.236;2023-11-19T14:15:07;5.03;;;3.08;;
34767;SDS011;21755;43.608;1.236;2023-11-19T14:17:42;6.35;;;2.80;;
34767;SDS011;21755;43.608;1.236;2023-11-19T14:20:08;4.80;;;2.92;;
34767;SDS011;21755;43.608;1.236;2023-11-19T14:22:38;6.25;;;3.05;;
34767;SDS011;21755;43.608;1.236;2023-11-19T14:25:08;8.88;;;3.25;;
34767;SDS011;21755;43.608;1.236;2023-11-19T14:27:37;4.28;;;2.63;;
34767;SDS011;21755;43.608;1.236;2023-11-19T14:30:07;5.18;;;2.70;;
34767;SDS011;21755;43.608;1.236;2023-11-19T14:32:36;5.95;;;3.13;;
34767;SDS011;21755;43.608;1.236;2023-11-19T14:35:02;8.25;;;2.97;;
34767;SDS011;21755;43.608;1.236;2023-11-19T14:37:32;11.50;;;3.45;;
34767;SDS011;21755;43.608;1.236;2023-11-19T14:39:58;6.30;;;2.95;;
34767;SDS011;21755;43.608;1.236;2023-11-19T14:42:25;5.40;;;2.90;;
34767;SDS011;21755;43.608;1.236;2023-11-19T14:44:51;5.63;;;3.38;;
34767;SDS011;21755;43.608;1.236;2023-11-19T14:47:21;6.93;;;3.05;;
34767;SDS011;21755;43.608;1.236;2023-11-19T14:49:47;8.00;;;3.20;;
34767;SDS011;21755;43.608;1.236;2023-11-19T14:52:13;6.00;;;3.08;;
34767;SDS011;21755;43.608;1.236;2023-11-19T14:54:39;6.15;;;2.97;;
34767;SDS011;21755;43.608;1.236;2023-11-19T14:57:05;6.30;;;2.53;;
34767;SDS011;21755;43.608;1.236;2023-11-19T14:59:35;5.32;;;2.58;;
34767;SDS011;21755;43.608;1.236;2023-11-19T15:02:01;10.43;;;3.03;;
34767;SDS011;21755;43.608;1.236;2023-11-19T15:04:28;7.97;;;3.90;;
34767;SDS011;21755;43.608;1.236;2023-11-19T15:06:57;7.20;;;3.50;;